Time;durP1;ratioP1;P1;durP2;ratioP2;P2;SDS_P1;SDS_P2;PMS_P1;PMS_P2;Temp;Humidity;BMP_temperature;BMP_pressure;BME280_temperature;BME280_humidity;BME280_pressure;Samples;Min_cycle;Max_cycle;Signal;HPM_P1;HPM_P2
2023/06/15 00:01:04;;;;;;;16.70;7.05;;;13.60;75.90;;;;;;4878127;29;20056;-89
2023/06/15 00:03:32;;;;;;;12.13;6.72;;;13.50;75.70;;;;;;4847959;29;20140;-89
2023/06/15 00:05:59;;;;;;;14.90;7.27;;;13.40;75.80;;;;;;4878639;29;20508;-89
2023/06/15 00:08:26;;;;;;;12.95;6.57;;;13.30;76.10;;;;;;4865731;29;20057;-89
2023/06/15 00:10:53;;;;;;;12.73;7.30;;;13.30;76.10;;;;;;4847826;29;20428;-90
2023/06/15 00:13:20;;;;;;;17.23;7.50;;;13.40;76.20;;;;;;4869798;29;20046;-89
2023/06/15 00:15:47;;;;;;;14.23;7.20;;;13.40;76.00;;;;;;4858039;29;20052;-90
2023/06/15 00:18:15;;;;;;;13.37;7.10;;;13.40;76.20;;;;;;4847897;29;20064;-89
2023/06/15 00:20:42;;;;;;;14.70;7.75;;;13.50;76.10;;;;;;4861106;29;20060;-90
2023/06/15 00:23:09;;;;;;;13.52;7.03;;;13.50;76.20;;;;;;4862717;29;20139;-90
2023/06/15 00:25:37;;;;;;;14.10;6.75;;;13.50;76.10;;;;;;4849513;29;20055;-90
2023/06/15 00:28:04;;;;;;;13.27;7.18;;;13.50;76.00;;;;;;4863033;29;20056;-89
2023/06/15 00:30:31;;;;;;;13.63;6.73;;;13.60;76.00;;;;;;4877981;29;20061;-90
2023/06/15 00:32:59;;;;;;;12.10;6.57;;;13.60;76.10;;;;;;4835864;29;20037;-90
2023/06/15 00:35:26;;;;;;;13.25;7.10;;;13.70;76.00;;;;;;4862417;29;20278;-89
2023/06/15 00:37:54;;;;;;;14.57;6.70;;;13.70;76.10;;;;;;4877041;29;20137;-89
2023/06/15 00:40:21;;;;;;;14.20;7.70;;;13.70;76.00;;;;;;4862564;29;20092;-89
2023/06/15 00:42:48;;;;;;;13.17;7.53;;;13.70;76.60;;;;;;4852324;29;20145;-89
2023/06/15 00:45:15;;;;;;;15.57;8.32;;;13.60;76.40;;;;;;4856404;29;20068;-89
2023/06/15 00:47:45;;;;;;;14.38;7.13;;;13.60;76.30;;;;;;4853922;29;20074;-89
2023/06/15 00:50:18;;;;;;;12.38;7.35;;;13.60;76.50;;;;;;4834502;29;20049;-90
2023/06/15 00:52:48;;;;;;;13.80;7.68;;;13.70;76.70;;;;;;4875342;29;20046;-89
2023/06/15 00:55:16;;;;;;;13.67;6.93;;;13.70;76.30;;;;;;4831969;29;20049;-89
2023/06/15 00:57:49;;;;;;;14.75;7.53;;;13.70;76.10;;;;;;4864756;29;20386;-89
2023/06/15 01:00:18;;;;;;;13.93;7.13;;;13.80;76.30;;;;;;4862319;29;20065;-89
2023/06/15 01:02:48;;;;;;;13.73;6.68;;;13.80;76.20;;;;;;4837076;29;20060;-90
2023/06/15 01:05:17;;;;;;;12.18;6.32;;;13.90;76.00;;;;;;4856434;29;20057;-90
2023/06/15 01:07:47;;;;;;;10.83;6.33;;;13.90;75.90;;;;;;4862307;29;20403;-90
2023/06/15 01:10:16;;;;;;;17.38;7.57;;;13.90;76.00;;;;;;4869331;29;20061;-90
2023/06/15 01:12:50;;;;;;;13.18;7.30;;;13.90;76.00;;;;;;4838088;29;20052;-90
2023/06/15 01:15:18;;;;;;;15.80;7.35;;;13.80;75.60;;;;;;4846767;29;20049;-89
2023/06/15 01:17:53;;;;;;;13.68;7.32;;;13.90;75.60;;;;;;4832150;29;20522;-90
2023/06/15 01:20:28;;;;;;;13.80;7.60;;;13.90;76.00;;;;;;4838934;29;20461;-91
2023/06/15 01:23:10;;;;;;;14.95;7.43;;;14.00;76.00;;;;;;4846710;29;20124;-90
2023/06/15 01:25:45;;;;;;;15.00;7.45;;;14.00;76.10;;;;;;4862216;29;20049;-90
2023/06/15 01:28:17;;;;;;;15.70;8.73;;;14.00;76.40;;;;;;4857776;29;20037;-90
2023/06/15 01:30:50;;;;;;;15.25;7.70;;;14.00;76.60;;;;;;4869480;29;20106;-89
2023/06/15 01:33:18;;;;;;;16.40;7.93;;;13.80;77.00;;;;;;4856570;29;20041;-88
2023/06/15 01:35:45;;;;;;;15.43;7.38;;;13.70;77.20;;;;;;4844946;29;20058;-89
2023/06/15 01:38:13;;;;;;;17.02;8.40;;;13.60;77.40;;;;;;4846468;29;20101;-89
2023/06/15 01:40:46;;;;;;;14.45;7.70;;;13.60;77.30;;;;;;4838962;29;20109;-89
2023/06/15 01:43:16;;;;;;;13.95;7.40;;;13.70;77.10;;;;;;4851409;29;20137;-89
2023/06/15 01:45:45;;;;;;;14.40;7.70;;;13.80;76.90;;;;;;4855163;29;20060;-88
2023/06/15 01:48:13;;;;;;;14.68;7.97;;;13.80;76.50;;;;;;4832711;29;20076;-89
2023/06/15 01:50:41;;;;;;;15.48;7.13;;;13.70;76.20;;;;;;4860527;29;20137;-90
2023/06/15 01:53:08;;;;;;;15.07;7.55;;;13.70;76.20;;;;;;4861410;29;20106;-90
2023/06/15 01:55:36;;;;;;;16.90;7.80;;;13.70;76.10;;;;;;4869125;29;20078;-90
2023/06/15 01:58:03;;;;;;;15.30;7.93;;;13.60;75.80;;;;;;4861209;29;20049;-89
2023/06/15 02:00:30;;;;;;;14.88;7.25;;;13.50;75.80;;;;;;4861488;29;20057;-90
2023/06/15 02:02:57;;;;;;;14.07;7.85;;;13.50;75.60;;;;;;4876739;29;20479;-89
2023/06/15 02:05:24;;;;;;;13.50;7.32;;;13.50;75.40;;;;;;4855022;29;20045;-89
2023/06/15 02:07:51;;;;;;;13.85;7.20;;;13.50;75.30;;;;;;4876880;29;20506;-89
2023/06/15 02:10:19;;;;;;;13.03;7.07;;;13.50;75.10;;;;;;4860911;29;20049;-89
2023/06/15 02:12:46;;;;;;;13.98;7.93;;;13.50;75.10;;;;;;4875622;29;20064;-89
2023/06/15 02:15:18;;;;;;;13.52;7.57;;;13.50;75.40;;;;;;4837895;29;20056;-89
2023/06/15 02:17:46;;;;;;;15.30;7.68;;;13.50;75.70;;;;;;4846095;29;20065;-89
2023/06/15 02:20:15;;;;;;;14.70;7.95;;;13.50;76.20;;;;;;4856456;29;20453;-89
2023/06/15 02:22:42;;;;;;;12.83;7.37;;;13.50;76.40;;;;;;4860951;29;20412;-89
2023/06/15 02:25:12;;;;;;;14.98;7.90;;;13.40;76.30;;;;;;4853588;29;20136;-89
2023/06/15 02:27:39;;;;;;;16.50;7.68;;;13.40;76.50;;;;;;4862937;29;20117;-89
2023/06/15 02:30:07;;;;;;;14.35;8.55;;;13.40;76.60;;;;;;4867962;29;20076;-89
2023/06/15 02:32:39;;;;;;;13.75;7.75;;;13.40;76.60;;;;;;4860919;29;20077;-90
2023/06/15 02:35:10;;;;;;;14.30;7.93;;;13.40;76.80;;;;;;4865052;29;20070;-90
2023/06/15 02:37:39;;;;;;;15.13;8.10;;;13.40;76.90;;;;;;4849435;29;20060;-89
2023/06/15 02:40:08;;;;;;;13.30;8.40;;;13.50;76.90;;;;;;4848045;29;20136;-89
2023/06/15 02:42:37;;;;;;;14.70;7.93;;;13.50;77.20;;;;;;4860662;29;20048;-89
2023/06/15 02:45:06;;;;;;;16.10;8.15;;;13.50;76.90;;;;;;4850821;29;20121;-90
2023/06/15 02:47:37;;;;;;;15.13;8.63;;;13.50;76.90;;;;;;4849000;29;20592;-89
2023/06/15 02:50:06;;;;;;;16.38;8.48;;;13.60;77.10;;;;;;4867389;29;20045;-89
2023/06/15 02:52:37;;;;;;;18.85;9.88;;;13.70;77.20;;;;;;4871759;29;20053;-89
2023/06/15 02:55:08;;;;;;;13.88;7.85;;;13.60;77.80;;;;;;4850843;29;20132;-92
2023/06/15 02:57:36;;;;;;;17.70;8.77;;;13.50;77.70;;;;;;4834717;29;20068;-92
2023/06/15 03:00:20;;;;;;;18.47;9.13;;;13.60;77.60;;;;;;4851493;29;20057;-92
2023/06/15 03:02:57;;;;;;;17.92;8.95;;;13.60;77.90;;;;;;4835139;29;20531;-92
2023/06/15 03:05:28;;;;;;;15.32;8.75;;;13.70;77.80;;;;;;4834750;29;20053;-92
2023/06/15 03:07:58;;;;;;;20.30;11.05;;;13.70;77.80;;;;;;4849691;29;20572;-92
2023/06/15 03:10:36;;;;;;;18.52;9.93;;;13.80;77.90;;;;;;4835410;29;20129;-92
2023/06/15 03:13:03;;;;;;;20.03;10.63;;;13.80;78.00;;;;;;4849292;29;20102;-92
2023/06/15 03:15:31;;;;;;;18.10;10.05;;;13.70;78.20;;;;;;4849439;29;20053;-91
2023/06/15 03:17:58;;;;;;;21.55;10.38;;;13.60;78.50;;;;;;4849114;29;20516;-91
2023/06/15 03:20:32;;;;;;;21.15;10.32;;;13.60;78.70;;;;;;4849072;29;20056;-92
2023/06/15 03:23:01;;;;;;;17.92;9.90;;;13.60;78.70;;;;;;4849148;29;20053;-91
2023/06/15 03:25:31;;;;;;;20.33;10.80;;;13.70;78.70;;;;;;4848960;29;20092;-91
2023/06/15 03:27:59;;;;;;;19.52;11.30;;;13.80;78.70;;;;;;4833463;29;20526;-91
2023/06/15 03:30:30;;;;;;;18.88;10.55;;;13.90;78.70;;;;;;4833932;29;20049;-90
2023/06/15 03:32:59;;;;;;;18.70;10.43;;;13.90;78.60;;;;;;4848925;29;20054;-91
2023/06/15 03:35:27;;;;;;;23.15;11.82;;;13.90;78.20;;;;;;4833694;29;20114;-91
2023/06/15 03:37:54;;;;;;;19.80;10.63;;;13.90;78.10;;;;;;4848778;29;20042;-90
2023/06/15 03:40:22;;;;;;;19.83;10.90;;;13.90;77.80;;;;;;4833720;29;20045;-91
2023/06/15 03:42:52;;;;;;;21.00;10.35;;;13.90;78.10;;;;;;4850118;29;20072;-92
2023/06/15 03:45:20;;;;;;;21.77;11.32;;;13.90;78.40;;;;;;4834018;29;20460;-93
2023/06/15 03:47:49;;;;;;;17.90;10.35;;;13.90;78.00;;;;;;4849006;29;20089;-90
2023/06/15 03:50:17;;;;;;;19.37;10.87;;;13.90;78.30;;;;;;4850857;29;20052;-90
2023/06/15 03:52:44;;;;;;;16.75;9.38;;;14.00;78.10;;;;;;4853659;29;20050;-90
2023/06/15 03:55:13;;;;;;;16.55;9.43;;;14.00;77.70;;;;;;4861293;29;20568;-91
2023/06/15 03:57:41;;;;;;;17.25;9.13;;;14.00;77.80;;;;;;4856293;29;20094;-91
2023/06/15 04:00:10;;;;;;;19.17;10.27;;;14.10;77.70;;;;;;4836494;29;20046;-90
2023/06/15 04:02:40;;;;;;;18.80;10.07;;;14.20;77.30;;;;;;4853673;29;20049;-90
2023/06/15 04:05:11;;;;;;;18.00;10.05;;;14.20;76.90;;;;;;4855876;29;20045;-90
2023/06/15 04:07:39;;;;;;;16.90;9.85;;;14.20;76.90;;;;;;4836041;29;20049;-91
2023/06/15 04:10:10;;;;;;;19.08;11.25;;;14.30;76.90;;;;;;4837218;29;20049;-90
2023/06/15 04:12:38;;;;;;;18.55;9.93;;;14.30;76.50;;;;;;4865143;29;20094;-90
2023/06/15 04:15:07;;;;;;;19.43;10.57;;;14.40;76.60;;;;;;4856733;29;20060;-91
2023/06/15 04:17:37;;;;;;;21.02;11.48;;;14.40;76.80;;;;;;4853871;29;20505;-90
2023/06/15 04:20:05;;;;;;;22.88;10.57;;;14.40;76.70;;;;;;4835446;29;20045;-91
2023/06/15 04:22:34;;;;;;;22.00;11.82;;;14.40;77.10;;;;;;4838993;29;20411;-91
2023/06/15 04:25:01;;;;;;;20.75;11.70;;;14.40;77.20;;;;;;4854844;29;20045;-91
2023/06/15 04:27:28;;;;;;;19.20;10.87;;;14.40;77.30;;;;;;4854877;29;20042;-90
2023/06/15 04:29:57;;;;;;;20.15;11.43;;;14.50;77.00;;;;;;4852087;29;20045;-91
2023/06/15 04:32:25;;;;;;;25.67;13.02;;;14.60;77.00;;;;;;4869330;29;20401;-91
2023/06/15 04:34:54;;;;;;;29.02;14.05;;;14.70;77.20;;;;;;4859160;29;20068;-91
2023/06/15 04:37:23;;;;;;;31.00;15.05;;;14.80;77.40;;;;;;4849265;29;20052;-91
2023/06/15 04:39:50;;;;;;;32.67;16.30;;;14.90;77.20;;;;;;4870434;29;20045;-91
2023/06/15 04:42:18;;;;;;;31.63;15.68;;;15.00;77.10;;;;;;4839825;29;20049;-91
2023/06/15 04:44:46;;;;;;;34.45;16.67;;;15.00;77.30;;;;;;4867280;29;20045;-91
2023/06/15 04:47:14;;;;;;;31.50;15.93;;;15.10;77.30;;;;;;4854041;29;20147;-91
2023/06/15 04:49:44;;;;;;;32.60;16.27;;;15.30;77.40;;;;;;4841597;29;20045;-91
2023/06/15 04:52:11;;;;;;;32.77;15.90;;;15.30;76.40;;;;;;4868614;29;20079;-91
2023/06/15 04:54:40;;;;;;;29.45;15.45;;;15.50;76.30;;;;;;4854245;29;20097;-91
2023/06/15 04:57:08;;;;;;;28.98;16.15;;;15.50;76.40;;;;;;4852792;29;20052;-91
2023/06/15 04:59:39;;;;;;;24.50;15.32;;;15.80;75.40;;;;;;4875245;29;20145;-91
2023/06/15 05:02:07;;;;;;;30.63;16.50;;;16.00;74.00;;;;;;4851670;29;20109;-91
2023/06/15 05:04:37;;;;;;;28.23;16.10;;;16.10;73.50;;;;;;4871016;29;20579;-92
2023/06/15 05:07:05;;;;;;;27.27;15.48;;;16.30;73.40;;;;;;4875088;29;20050;-92
2023/06/15 05:09:37;;;;;;;25.58;16.13;;;16.40;73.10;;;;;;4848971;29;20056;-92
2023/06/15 05:12:09;;;;;;;26.02;14.75;;;16.50;72.30;;;;;;4849311;29;20065;-92
2023/06/15 05:14:36;;;;;;;28.20;15.95;;;16.50;72.20;;;;;;4868042;29;20046;-92
2023/06/15 05:17:06;;;;;;;24.37;14.00;;;16.40;71.90;;;;;;4847941;29;20045;-91
2023/06/15 05:19:33;;;;;;;30.20;14.68;;;16.30;71.40;;;;;;4865948;29;20079;-91
2023/06/15 05:22:02;;;;;;;26.10;14.57;;;16.20;71.80;;;;;;4859174;29;20140;-92
2023/06/15 05:24:35;;;;;;;27.48;15.35;;;16.20;72.40;;;;;;4854754;29;20944;-91
2023/06/15 05:27:02;;;;;;;26.10;14.60;;;16.30;72.20;;;;;;4848759;29;20074;-92
2023/06/15 05:29:31;;;;;;;25.23;15.47;;;16.40;71.40;;;;;;4855033;29;20104;-92
2023/06/15 05:32:00;;;;;;;29.83;18.70;;;16.60;70.20;;;;;;4839346;29;20508;-92
2023/06/15 05:34:31;;;;;;;36.40;21.00;;;16.80;70.20;;;;;;4836519;29;20075;-92
2023/06/15 05:36:58;;;;;;;33.90;19.17;;;17.00;69.30;;;;;;4856261;29;20045;-92
2023/06/15 05:39:31;;;;;;;32.58;18.27;;;17.10;68.40;;;;;;4863702;29;20045;-92
2023/06/15 05:41:58;;;;;;;33.67;17.80;;;17.20;68.20;;;;;;4877757;29;20501;-92
2023/06/15 05:44:25;;;;;;;36.85;19.45;;;17.10;68.50;;;;;;4848189;29;20045;-93
2023/06/15 05:46:55;;;;;;;35.05;17.85;;;17.00;69.70;;;;;;4832527;29;20049;-92
2023/06/15 05:49:22;;;;;;;30.65;16.45;;;16.60;69.80;;;;;;4860715;29;20453;-93
2023/06/15 05:51:49;;;;;;;35.95;18.38;;;16.60;70.30;;;;;;4851867;29;20049;-93
2023/06/15 05:54:18;;;;;;;38.17;20.57;;;16.60;70.80;;;;;;4873704;29;20045;-92
2023/06/15 05:56:45;;;;;;;29.50;18.25;;;16.60;71.20;;;;;;4843928;29;20047;-92
2023/06/15 05:59:14;;;;;;;35.42;17.85;;;16.50;71.30;;;;;;4845290;29;20107;-92
2023/06/15 06:01:59;;;;;;;25.92;14.15;;;16.60;71.00;;;;;;4849072;29;20064;-93
2023/06/15 06:04:26;;;;;;;28.05;14.82;;;16.90;69.90;;;;;;4863821;29;20073;-92
2023/06/15 06:06:53;;;;;;;20.27;12.57;;;17.00;69.10;;;;;;4851304;29;20049;-93
2023/06/15 06:09:21;;;;;;;23.33;12.18;;;17.20;69.30;;;;;;4866626;29;20045;-93
2023/06/15 06:11:48;;;;;;;24.30;12.60;;;17.50;68.10;;;;;;4860875;29;20045;-93
2023/06/15 06:14:17;;;;;;;23.70;12.90;;;17.80;66.90;;;;;;4863134;29;20068;-93
2023/06/15 06:16:44;;;;;;;21.45;13.43;;;17.90;66.30;;;;;;4877956;29;20042;-93
2023/06/15 06:19:12;;;;;;;22.70;13.80;;;18.00;66.90;;;;;;4862748;29;20049;-93
2023/06/15 06:21:40;;;;;;;22.60;13.52;;;18.00;67.10;;;;;;4877813;29;20512;-93
2023/06/15 06:24:08;;;;;;;25.67;14.35;;;18.20;66.00;;;;;;4862907;29;20046;-93
2023/06/15 06:26:36;;;;;;;25.60;13.50;;;18.30;66.50;;;;;;4850104;29;20080;-94
2023/06/15 06:29:04;;;;;;;16.45;10.10;;;18.30;66.40;;;;;;4877741;29;20407;-93
2023/06/15 06:31:31;;;;;;;15.87;8.20;;;18.60;65.60;;;;;;4846924;29;20049;-93
2023/06/15 06:33:58;;;;;;;12.45;7.57;;;18.90;63.20;;;;;;4862358;29;20055;-93
2023/06/15 06:36:26;;;;;;;14.52;9.18;;;18.90;61.20;;;;;;4877501;29;20074;-93
2023/06/15 06:38:54;;;;;;;21.25;10.00;;;18.90;61.90;;;;;;4862279;29;20050;-93
2023/06/15 06:41:29;;;;;;;17.67;10.25;;;19.00;61.60;;;;;;4877742;29;20053;-93
2023/06/15 06:43:56;;;;;;;20.60;10.90;;;19.10;62.20;;;;;;4846500;29;20049;-93
2023/06/15 06:46:23;;;;;;;17.63;11.85;;;19.30;61.50;;;;;;4847079;29;20461;-93
2023/06/15 06:48:51;;;;;;;22.67;12.43;;;19.50;61.20;;;;;;4846458;29;20520;-93
2023/06/15 06:51:19;;;;;;;19.55;13.45;;;19.50;61.20;;;;;;4831454;29;20053;-93
2023/06/15 06:53:46;;;;;;;20.50;12.90;;;19.60;60.70;;;;;;4846771;29;20049;-93
2023/06/15 06:56:14;;;;;;;16.17;10.27;;;19.50;59.60;;;;;;4838516;29;20053;-93
2023/06/15 06:58:41;;;;;;;15.82;9.60;;;19.50;59.60;;;;;;4845948;29;20420;-92
2023/06/15 07:01:11;;;;;;;12.50;7.53;;;19.60;61.00;;;;;;4862158;29;20060;-93
2023/06/15 07:03:39;;;;;;;13.93;8.52;;;19.70;57.90;;;;;;4846578;29;20500;-93
2023/06/15 07:06:06;;;;;;;13.43;8.23;;;19.90;58.40;;;;;;4861901;29;20085;-93
2023/06/15 07:08:33;;;;;;;13.90;7.07;;;20.10;58.90;;;;;;4862017;29;20046;-93
2023/06/15 07:11:01;;;;;;;12.10;7.40;;;20.20;57.00;;;;;;4877289;29;20080;-94
2023/06/15 07:13:29;;;;;;;13.57;8.25;;;19.90;57.90;;;;;;4861814;29;20520;-93
2023/06/15 07:15:57;;;;;;;14.13;8.70;;;19.50;58.90;;;;;;4877307;29;20113;-93
2023/06/15 07:18:25;;;;;;;17.25;8.82;;;19.30;60.50;;;;;;4861323;29;20045;-93
2023/06/15 07:20:53;;;;;;;13.47;8.63;;;19.10;61.90;;;;;;4861638;29;20049;-93
2023/06/15 07:23:22;;;;;;;13.98;8.25;;;18.80;62.30;;;;;;4831124;29;20147;-94
2023/06/15 07:25:52;;;;;;;14.63;8.82;;;18.70;62.20;;;;;;4852636;29;20050;-93
2023/06/15 07:28:21;;;;;;;14.02;8.38;;;18.60;62.30;;;;;;4831195;29;20136;-93
2023/06/15 07:30:49;;;;;;;17.38;8.98;;;18.70;62.80;;;;;;4846893;29;20060;-93
2023/06/15 07:33:17;;;;;;;13.67;8.40;;;18.60;62.10;;;;;;4832705;29;20049;-93
2023/06/15 07:35:45;;;;;;;13.10;7.82;;;18.50;63.20;;;;;;4850639;29;20046;-93
2023/06/15 07:38:14;;;;;;;12.52;8.43;;;18.40;63.20;;;;;;4850525;29;20042;-93
2023/06/15 07:40:42;;;;;;;12.90;7.85;;;18.60;63.10;;;;;;4840827;29;20144;-93
2023/06/15 07:43:10;;;;;;;13.45;7.78;;;18.70;62.50;;;;;;4865138;29;20105;-94
2023/06/15 07:45:37;;;;;;;14.90;8.43;;;18.80;62.40;;;;;;4880263;29;20053;-93
2023/06/15 07:48:05;;;;;;;11.95;7.32;;;18.80;62.30;;;;;;4864491;29;20064;-93
2023/06/15 07:50:33;;;;;;;11.50;6.95;;;18.80;62.50;;;;;;4864603;29;20140;-93
2023/06/15 07:53:00;;;;;;;11.50;6.50;;;18.80;61.20;;;;;;4864745;29;20053;-93
2023/06/15 07:55:27;;;;;;;13.93;7.07;;;18.60;60.70;;;;;;4864652;29;20049;-94
2023/06/15 07:57:54;;;;;;;13.73;8.17;;;18.90;62.20;;;;;;4848982;29;20042;-93
2023/06/15 08:00:22;;;;;;;13.70;8.88;;;19.00;62.20;;;;;;4849401;29;20099;-93
2023/06/15 08:02:58;;;;;;;13.52;8.55;;;19.00;62.40;;;;;;4860266;29;20049;-93
2023/06/15 08:05:25;;;;;;;14.75;8.57;;;19.00;62.60;;;;;;4849440;29;20136;-92
2023/06/15 08:07:53;;;;;;;13.27;8.60;;;18.70;63.40;;;;;;4849466;29;20049;-92
2023/06/15 08:10:20;;;;;;;15.90;8.70;;;18.60;63.70;;;;;;4849470;29;20056;-93
2023/06/15 08:12:47;;;;;;;13.40;7.97;;;18.70;62.90;;;;;;4834091;29;20049;-93
2023/06/15 08:15:15;;;;;;;12.80;8.40;;;18.80;64.10;;;;;;4849098;29;20412;-93
2023/06/15 08:17:42;;;;;;;15.85;8.73;;;18.90;63.40;;;;;;4834242;29;20109;-93
2023/06/15 08:20:09;;;;;;;13.45;8.98;;;18.90;63.20;;;;;;4848887;29;20060;-93
2023/06/15 08:22:37;;;;;;;15.27;8.43;;;18.90;62.50;;;;;;4849187;29;20136;-93
2023/06/15 08:25:05;;;;;;;13.35;8.25;;;18.90;62.40;;;;;;4849564;29;20050;-92
2023/06/15 08:27:32;;;;;;;13.02;8.65;;;19.00;62.80;;;;;;4834014;29;20087;-93
2023/06/15 08:29:59;;;;;;;13.43;8.63;;;19.00;62.10;;;;;;4860333;29;20086;-93
2023/06/15 08:32:28;;;;;;;14.85;7.78;;;19.00;61.60;;;;;;4848435;29;20389;-93
2023/06/15 08:34:56;;;;;;;13.30;7.83;;;19.10;59.70;;;;;;4856799;29;20045;-93
2023/06/15 08:37:23;;;;;;;12.13;7.72;;;19.10;60.50;;;;;;4879581;29;20046;-93
2023/06/15 08:39:51;;;;;;;14.07;8.57;;;19.10;60.00;;;;;;4863929;29;20101;-93
2023/06/15 08:42:23;;;;;;;12.55;7.60;;;19.10;62.60;;;;;;4871745;29;20500;-93
2023/06/15 08:44:54;;;;;;;11.88;7.60;;;19.40;61.40;;;;;;4848949;29;20064;-93
2023/06/15 08:47:22;;;;;;;12.03;7.57;;;19.50;60.20;;;;;;4833591;29;20469;-93
2023/06/15 08:49:52;;;;;;;12.85;7.60;;;19.50;59.20;;;;;;4855055;29;20115;-94
2023/06/15 08:52:23;;;;;;;11.52;7.00;;;19.50;60.00;;;;;;4843420;29;20069;-93
2023/06/15 08:54:53;;;;;;;13.45;8.00;;;19.60;59.30;;;;;;4863646;29;20416;-93
2023/06/15 08:57:21;;;;;;;12.00;7.93;;;19.60;59.60;;;;;;4863263;29;20144;-93
2023/06/15 08:59:48;;;;;;;11.77;6.67;;;19.70;58.30;;;;;;4842695;29;20058;-92
2023/06/15 09:02:23;;;;;;;10.15;6.40;;;19.80;59.10;;;;;;4827854;29;20119;-94
2023/06/15 09:04:51;;;;;;;11.43;6.90;;;20.00;59.30;;;;;;4823367;29;20123;-93
2023/06/15 09:07:20;;;;;;;12.23;7.65;;;20.20;58.40;;;;;;4835249;29;20536;-93
2023/06/15 09:10:10;;;;;;;10.43;7.03;;;20.40;57.30;;;;;;4811786;29;20050;-93
2023/06/15 09:12:53;;;;;;;10.33;6.97;;;20.60;56.70;;;;;;4829522;29;20052;-93
2023/06/15 09:15:21;;;;;;;12.35;7.82;;;20.90;57.50;;;;;;4826481;29;20046;-94
2023/06/15 09:17:58;;;;;;;10.73;7.13;;;21.30;57.40;;;;;;4826579;29;20050;-93
2023/06/15 09:20:29;;;;;;;10.73;8.25;;;21.30;54.10;;;;;;4826401;29;20050;-93
2023/06/15 09:23:01;;;;;;;10.77;7.40;;;21.20;54.60;;;;;;4826458;29;20057;-94
2023/06/15 09:25:36;;;;;;;11.33;7.77;;;21.00;55.20;;;;;;4826833;29;20061;-93
2023/06/15 09:28:07;;;;;;;12.38;7.78;;;20.80;55.50;;;;;;4827872;29;20049;-93
2023/06/15 09:30:39;;;;;;;12.75;7.53;;;20.60;55.40;;;;;;4826480;29;20054;-94
2023/06/15 09:33:18;;;;;;;11.57;7.60;;;20.60;57.40;;;;;;4826252;29;20551;-93
2023/06/15 09:36:03;;;;;;;10.65;7.45;;;20.70;55.30;;;;;;4829133;29;20046;-93
2023/06/15 09:38:32;;;;;;;12.53;7.97;;;20.90;56.50;;;;;;4825963;29;20088;-93
2023/06/15 09:41:03;;;;;;;10.57;6.68;;;21.10;56.80;;;;;;4829006;29;20049;-93
2023/06/15 09:43:35;;;;;;;11.63;8.00;;;21.20;55.50;;;;;;4844112;29;20054;-94
2023/06/15 09:46:08;;;;;;;11.57;7.30;;;21.10;54.00;;;;;;4807715;29;20153;-93
2023/06/15 09:48:40;;;;;;;13.70;7.30;;;21.10;56.00;;;;;;4819986;29;20057;-94
2023/06/15 09:51:07;;;;;;;12.23;7.50;;;21.20;55.20;;;;;;4826631;29;20590;-93
2023/06/15 09:53:35;;;;;;;14.75;7.18;;;21.10;54.70;;;;;;4840846;29;20103;-94
2023/06/15 09:56:05;;;;;;;12.93;7.60;;;21.00;55.90;;;;;;4840125;29;20042;-93
2023/06/15 09:58:51;;;;;;;10.43;6.60;;;20.90;55.10;;;;;;4817322;29;20069;-93
2023/06/15 10:01:19;;;;;;;9.23;6.65;;;21.10;54.00;;;;;;4843861;29;20058;-94
2023/06/15 10:03:52;;;;;;;18.07;7.10;;;20.90;52.50;;;;;;4861520;29;20050;-94
2023/06/15 10:06:22;;;;;;;11.25;7.10;;;20.80;53.50;;;;;;4843889;29;20053;-93
2023/06/15 10:08:56;;;;;;;11.68;7.53;;;21.10;55.10;;;;;;4843693;29;20484;-93
2023/06/15 10:11:26;;;;;;;11.25;6.18;;;21.20;52.60;;;;;;4828938;29;20052;-92
2023/06/15 10:14:10;;;;;;;9.07;5.65;;;21.40;52.80;;;;;;4859535;29;20045;-93
2023/06/15 10:16:40;;;;;;;8.17;5.10;;;21.60;51.30;;;;;;4841031;29;20576;-93
2023/06/15 10:19:12;;;;;;;8.50;5.90;;;21.80;50.30;;;;;;4840742;29;20047;-93
2023/06/15 10:21:44;;;;;;;8.35;5.50;;;22.10;50.90;;;;;;4866430;29;20053;-93
2023/06/15 10:24:15;;;;;;;9.23;5.90;;;22.40;48.20;;;;;;4865888;29;20505;-93
2023/06/15 10:26:44;;;;;;;8.70;5.93;;;22.50;48.00;;;;;;4854311;29;20084;-93
2023/06/15 10:29:16;;;;;;;9.20;6.30;;;22.30;48.40;;;;;;4877175;29;20493;-93
2023/06/15 10:32:24;;;;;;;9.27;6.22;;;22.30;49.10;;;;;;4862117;29;20046;-93
2023/06/15 10:34:54;;;;;;;10.32;6.38;;;22.40;50.00;;;;;;4805627;29;20054;-94
2023/06/15 10:37:48;;;;;;;9.57;6.45;;;22.50;50.20;;;;;;4840446;29;20054;-93
2023/06/15 10:40:24;;;;;;;10.45;6.88;;;22.70;48.30;;;;;;4853253;29;20053;-94
2023/06/15 10:42:55;;;;;;;9.30;6.67;;;22.90;49.40;;;;;;4875614;29;20053;-94
2023/06/15 10:45:25;;;;;;;9.80;7.03;;;22.90;49.60;;;;;;4860759;29;20056;-93
2023/06/15 10:47:52;;;;;;;10.30;6.97;;;22.80;49.70;;;;;;4864070;29;20145;-94
2023/06/15 10:50:20;;;;;;;9.02;6.85;;;22.60;50.10;;;;;;4842139;29;20481;-94
2023/06/15 10:52:48;;;;;;;8.57;6.47;;;22.40;50.20;;;;;;4858402;29;20042;-94
2023/06/15 10:55:16;;;;;;;9.07;6.80;;;22.30;49.90;;;;;;4839977;29;20054;-94
2023/06/15 10:57:43;;;;;;;10.00;7.07;;;22.30;50.20;;;;;;4843328;29;20061;-94
2023/06/15 11:00:11;;;;;;;10.52;7.43;;;22.40;52.00;;;;;;4859037;29;20525;-93
2023/06/15 11:02:44;;;;;;;10.98;7.45;;;22.50;50.70;;;;;;4858669;29;20061;-94
2023/06/15 11:05:14;;;;;;;10.52;6.70;;;22.60;49.40;;;;;;4858417;29;20079;-93
2023/06/15 11:07:43;;;;;;;9.70;6.50;;;22.50;49.90;;;;;;4844779;29;20141;-94
2023/06/15 11:10:21;;;;;;;8.60;6.30;;;22.40;50.10;;;;;;4842782;29;20042;-94
2023/06/15 11:13:00;;;;;;;10.15;7.03;;;22.60;49.60;;;;;;4849983;29;20073;-94
2023/06/15 11:15:36;;;;;;;8.45;6.03;;;22.50;49.30;;;;;;4850021;29;20045;-93
2023/06/15 11:18:14;;;;;;;10.15;6.53;;;22.70;48.00;;;;;;4864893;29;20148;-93
2023/06/15 11:20:52;;;;;;;9.57;6.60;;;22.80;49.10;;;;;;4855092;29;20141;-93
2023/06/15 11:23:24;;;;;;;10.00;5.78;;;23.00;51.40;;;;;;4846824;29;20050;-94
2023/06/15 11:25:54;;;;;;;9.82;6.70;;;23.10;48.30;;;;;;4843525;29;20111;-94
2023/06/15 11:28:24;;;;;;;9.27;6.43;;;23.40;48.00;;;;;;4839859;29;20056;-94
2023/06/15 11:31:05;;;;;;;12.15;7.20;;;23.30;48.20;;;;;;4847908;29;20057;-94
2023/06/15 11:33:41;;;;;;;10.47;7.20;;;23.10;47.90;;;;;;4846388;29;20072;-94
2023/06/15 11:36:10;;;;;;;9.27;6.38;;;23.20;47.20;;;;;;4846444;29;20133;-94
2023/06/15 11:38:38;;;;;;;9.35;6.00;;;23.10;46.70;;;;;;4849186;29;20497;-93
2023/06/15 11:41:10;;;;;;;9.55;6.10;;;23.10;46.10;;;;;;4846088;29;20054;-93
2023/06/15 11:43:42;;;;;;;9.65;6.85;;;23.20;46.10;;;;;;4858983;29;20527;-93
2023/06/15 11:46:14;;;;;;;9.93;7.10;;;23.20;46.00;;;;;;4846255;29;20061;-93
2023/06/15 11:48:45;;;;;;;10.95;6.65;;;23.10;47.20;;;;;;4854310;29;20046;-93
2023/06/15 11:51:15;;;;;;;9.15;6.20;;;23.30;48.60;;;;;;4849302;29;20045;-93
2023/06/15 11:53:43;;;;;;;10.20;6.45;;;23.50;48.40;;;;;;4864078;29;20052;-94
2023/06/15 11:56:14;;;;;;;12.10;7.25;;;23.50;45.80;;;;;;4848863;29;20176;-93
2023/06/15 11:58:45;;;;;;;10.37;7.03;;;23.50;45.70;;;;;;4861208;29;20114;-93
2023/06/15 12:01:14;;;;;;;10.55;7.22;;;23.50;46.00;;;;;;4861013;29;20054;-93
2023/06/15 12:03:49;;;;;;;9.55;6.68;;;23.70;49.60;;;;;;4845699;29;20484;-94
2023/06/15 12:06:20;;;;;;;9.75;6.65;;;23.80;45.80;;;;;;4830637;29;20409;-94
2023/06/15 12:08:52;;;;;;;8.77;6.55;;;23.70;44.60;;;;;;4846755;29;20050;-94
2023/06/15 12:11:24;;;;;;;9.07;6.07;;;23.80;45.40;;;;;;4871804;29;20045;-94
2023/06/15 12:13:51;;;;;;;26.05;7.07;;;23.60;46.10;;;;;;4855039;29;20102;-94
2023/06/15 12:16:18;;;;;;;10.32;6.35;;;23.80;45.90;;;;;;4854528;29;20107;-94
2023/06/15 12:18:56;;;;;;;9.43;6.20;;;24.10;44.80;;;;;;4859971;29;20049;-94
2023/06/15 12:21:24;;;;;;;8.82;6.00;;;24.30;44.40;;;;;;4851644;29;20057;-94
2023/06/15 12:23:51;;;;;;;8.97;5.90;;;24.30;42.60;;;;;;4845570;29;20054;-94
2023/06/15 12:26:20;;;;;;;8.55;5.65;;;24.40;43.70;;;;;;4845265;29;20056;-94
2023/06/15 12:28:50;;;;;;;16.90;5.75;;;24.60;42.90;;;;;;4859464;29;20060;-94
2023/06/15 12:31:18;;;;;;;7.97;5.07;;;24.70;42.50;;;;;;4853373;29;20052;-94
2023/06/15 12:33:50;;;;;;;10.75;5.65;;;24.60;41.50;;;;;;4846724;29;20041;-93
2023/06/15 12:36:20;;;;;;;8.93;5.77;;;24.60;42.80;;;;;;4856125;29;20052;-94
2023/06/15 12:38:49;;;;;;;9.15;5.50;;;24.50;41.30;;;;;;4846718;29;20046;-94
2023/06/15 12:41:18;;;;;;;7.80;4.85;;;24.20;41.90;;;;;;4878675;29;20045;-94
2023/06/15 12:43:45;;;;;;;8.38;5.15;;;23.90;43.10;;;;;;4869162;29;20054;-94
2023/06/15 12:46:12;;;;;;;9.18;5.75;;;23.30;43.20;;;;;;4845109;29;20535;-94
2023/06/15 12:48:40;;;;;;;8.60;5.43;;;22.90;43.60;;;;;;4845187;29;20045;-93